sensor_id;sensor_type;location;lat;lon;timestamp;pressure;altitude;pressure_sealevel;temperature;humidity
34586;BME280;20816;50.950;11.108;2023-02-10T00:03:43;100161.31;;;-1.15;79.48
34586;BME280;20816;50.950;11.108;2023-02-10T00:06:10;100176.41;;;-1.06;79.50
34586;BME280;20816;50.950;11.108;2023-02-10T00:08:37;100178.69;;;-1.12;79.63
34586;BME280;20816;50.950;11.108;2023-02-10T00:11:06;100165.78;;;-1.12;79.53
34586;BME280;20816;50.950;11.108;2023-02-10T00:13:33;100171.50;;;-1.18;79.74
34586;BME280;20816;50.950;11.108;2023-02-10T00:16:03;100177.97;;;-1.26;80.07
34586;BME280;20816;50.950;11.108;2023-02-10T00:18:30;100175.41;;;-1.08;80.12
34586;BME280;20816;50.950;11.108;2023-02-10T00:21:05;100168.56;;;-1.07;79.46
34586;BME280;20816;50.950;11.108;2023-02-10T00:23:32;100174.00;;;-1.19;80.03
34586;BME280;20816;50.950;11.108;2023-02-10T00:26:05;100175.81;;;-1.34;81.27
34586;BME280;20816;50.950;11.108;2023-02-10T00:28:33;100189.03;;;-1.28;80.40
34586;BME280;20816;50.950;11.108;2023-02-10T00:31:08;100186.09;;;-1.18;80.37
34586;BME280;20816;50.950;11.108;2023-02-10T00:33:38;100184.66;;;-1.13;79.87
34586;BME280;20816;50.950;11.108;2023-02-10T00:36:05;100190.06;;;-1.25;80.00
34586;BME280;20816;50.950;11.108;2023-02-10T00:38:35;100197.88;;;-1.23;80.29
34586;BME280;20816;50.950;11.108;2023-02-10T00:41:03;100192.41;;;-1.29;80.49
34586;BME280;20816;50.950;11.108;2023-02-10T00:43:30;100193.78;;;-1.36;80.32
34586;BME280;20816;50.950;11.108;2023-02-10T00:45:56;100201.13;;;-1.44;80.86
34586;BME280;20816;50.950;11.108;2023-02-10T00:48:23;100203.25;;;-1.53;81.40
34586;BME280;20816;50.950;11.108;2023-02-10T00:50:49;100198.41;;;-1.47;81.17
34586;BME280;20816;50.950;11.108;2023-02-10T00:53:16;100200.19;;;-1.62;81.21
34586;BME280;20816;50.950;11.108;2023-02-10T00:55:43;100201.63;;;-1.67;81.66
34586;BME280;20816;50.950;11.108;2023-02-10T00:58:09;100202.66;;;-1.80;82.21
34586;BME280;20816;50.950;11.108;2023-02-10T01:00:35;100203.81;;;-1.91;82.53
34586;BME280;20816;50.950;11.108;2023-02-10T01:03:02;100207.44;;;-2.04;83.32
34586;BME280;20816;50.950;11.108;2023-02-10T01:05:29;100217.38;;;-2.10;83.48
34586;BME280;20816;50.950;11.108;2023-02-10T01:07:55;100213.31;;;-2.21;83.94
34586;BME280;20816;50.950;11.108;2023-02-10T01:10:22;100212.81;;;-2.30;84.43
34586;BME280;20816;50.950;11.108;2023-02-10T01:12:48;100221.19;;;-2.34;84.93
34586;BME280;20816;50.950;11.108;2023-02-10T01:15:15;100223.69;;;-2.36;84.86
34586;BME280;20816;50.950;11.108;2023-02-10T01:17:41;100220.84;;;-2.40;85.10
34586;BME280;20816;50.950;11.108;2023-02-10T01:20:08;100216.16;;;-2.47;85.05
34586;BME280;20816;50.950;11.108;2023-02-10T01:22:35;100218.72;;;-2.47;85.16
34586;BME280;20816;50.950;11.108;2023-02-10T01:25:02;100217.84;;;-2.48;85.44
34586;BME280;20816;50.950;11.108;2023-02-10T01:27:29;100217.59;;;-2.52;85.53
34586;BME280;20816;50.950;11.108;2023-02-10T01:29:57;100227.25;;;-2.48;86.02
34586;BME280;20816;50.950;11.108;2023-02-10T01:32:24;100225.66;;;-2.46;86.53
34586;BME280;20816;50.950;11.108;2023-02-10T01:34:50;100219.06;;;-2.41;86.31
34586;BME280;20816;50.950;11.108;2023-02-10T01:37:17;100225.38;;;-2.36;86.94
34586;BME280;20816;50.950;11.108;2023-02-10T01:39:43;100225.63;;;-2.32;87.26
34586;BME280;20816;50.950;11.108;2023-02-10T01:42:13;100222.75;;;-2.21;87.04
34586;BME280;20816;50.950;11.108;2023-02-10T01:47:06;100232.44;;;-2.01;86.75
34586;BME280;20816;50.950;11.108;2023-02-10T01:49:38;100222.91;;;-1.87;85.92
34586;BME280;20816;50.950;11.108;2023-02-10T01:52:14;100226.13;;;-1.75;85.42
34586;BME280;20816;50.950;11.108;2023-02-10T01:54:56;100224.84;;;-1.67;85.25
34586;BME280;20816;50.950;11.108;2023-02-10T01:57:24;100226.28;;;-1.56;84.82
34586;BME280;20816;50.950;11.108;2023-02-10T01:59:51;100229.19;;;-1.50;85.33
34586;BME280;20816;50.950;11.108;2023-02-10T02:02:20;100224.19;;;-1.47;85.34
34586;BME280;20816;50.950;11.108;2023-02-10T02:04:50;100230.53;;;-1.40;85.20
34586;BME280;20816;50.950;11.108;2023-02-10T02:07:21;100229.03;;;-1.36;85.49
34586;BME280;20816;50.950;11.108;2023-02-10T02:09:55;100224.88;;;-1.33;85.74
34586;BME280;20816;50.950;11.108;2023-02-10T02:16:15;100226.38;;;-1.04;88.20
34586;BME280;20816;50.950;11.108;2023-02-10T02:18:24;100224.75;;;-1.02;89.14
34586;BME280;20816;50.950;11.108;2023-02-10T02:21:22;100228.75;;;-0.91;89.13
34586;BME280;20816;50.950;11.108;2023-02-10T02:31:45;100228.38;;;-0.64;88.39
34586;BME280;20816;50.950;11.108;2023-02-10T02:34:33;100224.34;;;-0.58;89.23
34586;BME280;20816;50.950;11.108;2023-02-10T02:37:14;100220.09;;;-0.57;89.49
34586;BME280;20816;50.950;11.108;2023-02-10T02:39:42;100221.56;;;-0.62;90.37
34586;BME280;20816;50.950;11.108;2023-02-10T02:44:35;100213.00;;;-0.43;89.37
34586;BME280;20816;50.950;11.108;2023-02-10T02:56:07;100212.56;;;-0.35;87.27
34586;BME280;20816;50.950;11.108;2023-02-10T03:01:19;100208.72;;;-0.43;90.33
34586;BME280;20816;50.950;11.108;2023-02-10T03:03:52;100210.06;;;-0.51;92.70
34586;BME280;20816;50.950;11.108;2023-02-10T03:06:19;100211.03;;;-0.49;94.70
34586;BME280;20816;50.950;11.108;2023-02-10T03:08:46;100207.25;;;-0.55;96.10
34586;BME280;20816;50.950;11.108;2023-02-10T03:11:12;100209.09;;;-0.53;96.42
34586;BME280;20816;50.950;11.108;2023-02-10T03:13:39;100222.59;;;-0.59;94.94
34586;BME280;20816;50.950;11.108;2023-02-10T03:16:05;100219.19;;;-0.58;95.28
34586;BME280;20816;50.950;11.108;2023-02-10T03:18:32;100223.19;;;-0.64;96.31
34586;BME280;20816;50.950;11.108;2023-02-10T03:20:59;100220.25;;;-0.54;96.49
34586;BME280;20816;50.950;11.108;2023-02-10T03:23:25;100215.22;;;-0.51;95.78
34586;BME280;20816;50.950;11.108;2023-02-10T03:25:52;100230.13;;;-0.45;95.11
34586;BME280;20816;50.950;11.108;2023-02-10T03:28:18;100229.13;;;-0.49;95.23
34586;BME280;20816;50.950;11.108;2023-02-10T03:30:45;100230.72;;;-0.51;95.03
34586;BME280;20816;50.950;11.108;2023-02-10T03:33:16;100226.34;;;-0.34;93.01
34586;BME280;20816;50.950;11.108;2023-02-10T03:35:44;100229.38;;;-0.43;92.65
34586;BME280;20816;50.950;11.108;2023-02-10T03:38:12;100228.66;;;-0.40;92.77
34586;BME280;20816;50.950;11.108;2023-02-10T03:40:39;100238.53;;;-0.49;93.68
34586;BME280;20816;50.950;11.108;2023-02-10T03:43:06;100235.66;;;-0.38;92.88
34586;BME280;20816;50.950;11.108;2023-02-10T03:45:32;100244.88;;;-0.43;92.06
34586;BME280;20816;50.950;11.108;2023-02-10T03:47:59;100251.53;;;-0.48;92.37
34586;BME280;20816;50.950;11.108;2023-02-10T03:50:25;100249.09;;;-0.45;92.58
34586;BME280;20816;50.950;11.108;2023-02-10T03:52:52;100251.81;;;-0.42;91.89
34586;BME280;20816;50.950;11.108;2023-02-10T03:55:19;100248.28;;;-0.44;92.76
34586;BME280;20816;50.950;11.108;2023-02-10T03:57:45;100256.41;;;-0.54;93.30
34586;BME280;20816;50.950;11.108;2023-02-10T04:00:13;100259.13;;;-0.51;93.06
34586;BME280;20816;50.950;11.108;2023-02-10T04:02:47;100250.88;;;-0.44;92.16
34586;BME280;20816;50.950;11.108;2023-02-10T04:05:14;100260.09;;;-0.49;92.29
34586;BME280;20816;50.950;11.108;2023-02-10T04:07:40;100259.06;;;-0.35;92.39
34586;BME280;20816;50.950;11.108;2023-02-10T04:10:07;100259.81;;;-0.37;92.77
34586;BME280;20816;50.950;11.108;2023-02-10T04:12:33;100263.94;;;-0.41;93.04
34586;BME280;20816;50.950;11.108;2023-02-10T04:15:00;100258.16;;;-0.35;93.63
34586;BME280;20816;50.950;11.108;2023-02-10T04:17:26;100260.16;;;-0.30;94.00
34586;BME280;20816;50.950;11.108;2023-02-10T04:19:53;100265.91;;;-0.17;93.95
34586;BME280;20816;50.950;11.108;2023-02-10T04:22:19;100265.91;;;-0.17;93.96
34586;BME280;20816;50.950;11.108;2023-02-10T04:24:47;100276.13;;;-0.20;93.79
34586;BME280;20816;50.950;11.108;2023-02-10T04:27:14;100284.00;;;-0.17;93.76
34586;BME280;20816;50.950;11.108;2023-02-10T04:29:40;100279.00;;;-0.14;93.38
34586;BME280;20816;50.950;11.108;2023-02-10T04:32:07;100271.06;;;-0.17;93.31
34586;BME280;20816;50.950;11.108;2023-02-10T04:34:34;100281.97;;;-0.24;93.55
34586;BME280;20816;50.950;11.108;2023-02-10T04:37:01;100285.25;;;-0.09;93.43
34586;BME280;20816;50.950;11.108;2023-02-10T04:39:31;100289.91;;;-0.20;93.46
34586;BME280;20816;50.950;11.108;2023-02-10T04:41:58;100297.72;;;-0.18;93.59
34586;BME280;20816;50.950;11.108;2023-02-10T04:44:24;100293.44;;;-0.18;93.03
34586;BME280;20816;50.950;11.108;2023-02-10T04:46:51;100294.50;;;-0.14;93.31
34586;BME280;20816;50.950;11.108;2023-02-10T04:49:20;100294.69;;;-0.10;93.87
34586;BME280;20816;50.950;11.108;2023-02-10T04:51:46;100300.03;;;-0.07;93.42
34586;BME280;20816;50.950;11.108;2023-02-10T04:54:13;100304.38;;;-0.06;93.88
34586;BME280;20816;50.950;11.108;2023-02-10T04:56:40;100299.16;;;-0.07;94.26
34586;BME280;20816;50.950;11.108;2023-02-10T04:59:07;100298.63;;;0.00;94.06
34586;BME280;20816;50.950;11.108;2023-02-10T05:01:33;100308.81;;;-0.03;94.16
34586;BME280;20816;50.950;11.108;2023-02-10T05:04:00;100311.31;;;-0.05;94.86
34586;BME280;20816;50.950;11.108;2023-02-10T05:06:29;100303.50;;;-0.06;94.75
34586;BME280;20816;50.950;11.108;2023-02-10T05:08:56;100306.03;;;-0.08;95.04
34586;BME280;20816;50.950;11.108;2023-02-10T05:11:23;100312.06;;;-0.07;95.18
34586;BME280;20816;50.950;11.108;2023-02-10T05:13:49;100311.19;;;-0.08;95.86
34586;BME280;20816;50.950;11.108;2023-02-10T05:16:18;100316.72;;;0.00;95.76
34586;BME280;20816;50.950;11.108;2023-02-10T05:18:50;100313.09;;;-0.04;96.46
34586;BME280;20816;50.950;11.108;2023-02-10T05:21:16;100303.81;;;0.00;96.50
34586;BME280;20816;50.950;11.108;2023-02-10T05:23:44;100310.75;;;0.01;96.46
34586;BME280;20816;50.950;11.108;2023-02-10T05:26:10;100311.56;;;0.00;96.78
34586;BME280;20816;50.950;11.108;2023-02-10T05:28:37;100305.84;;;0.07;96.83
34586;BME280;20816;50.950;11.108;2023-02-10T05:31:03;100310.88;;;0.04;96.99
34586;BME280;20816;50.950;11.108;2023-02-10T05:33:32;100310.75;;;0.01;97.31
34586;BME280;20816;50.950;11.108;2023-02-10T05:36:00;100308.28;;;0.04;97.56
34586;BME280;20816;50.950;11.108;2023-02-10T05:38:27;100305.13;;;0.10;97.68
34586;BME280;20816;50.950;11.108;2023-02-10T05:40:53;100308.88;;;0.16;97.76
34586;BME280;20816;50.950;11.108;2023-02-10T05:43:20;100312.19;;;0.14;97.86
34586;BME280;20816;50.950;11.108;2023-02-10T05:45:46;100315.59;;;0.13;98.55
34586;BME280;20816;50.950;11.108;2023-02-10T05:48:14;100319.00;;;0.12;98.58
34586;BME280;20816;50.950;11.108;2023-02-10T05:50:40;100324.22;;;0.13;99.46
34586;BME280;20816;50.950;11.108;2023-02-10T05:53:07;100324.41;;;0.16;99.07
34586;BME280;20816;50.950;11.108;2023-02-10T05:55:35;100325.34;;;0.18;99.45
34586;BME280;20816;50.950;11.108;2023-02-10T05:58:02;100322.91;;;0.21;99.50
34586;BME280;20816;50.950;11.108;2023-02-10T06:00:30;100323.59;;;0.17;99.93
34586;BME280;20816;50.950;11.108;2023-02-10T06:02:57;100326.06;;;0.16;100.00
34586;BME280;20816;50.950;11.108;2023-02-10T06:05:23;100337.31;;;0.16;100.00
34586;BME280;20816;50.950;11.108;2023-02-10T06:07:50;100333.16;;;0.20;100.00
34586;BME280;20816;50.950;11.108;2023-02-10T06:10:16;100338.47;;;0.23;100.00
34586;BME280;20816;50.950;11.108;2023-02-10T06:12:43;100338.41;;;0.21;100.00
34586;BME280;20816;50.950;11.108;2023-02-10T06:15:10;100335.69;;;0.18;100.00
34586;BME280;20816;50.950;11.108;2023-02-10T06:17:36;100341.94;;;0.23;100.00
34586;BME280;20816;50.950;11.108;2023-02-10T06:20:03;100342.75;;;0.22;100.00
34586;BME280;20816;50.950;11.108;2023-02-10T06:22:32;100348.16;;;0.27;100.00
34586;BME280;20816;50.950;11.108;2023-02-10T06:24:58;100343.06;;;0.28;100.00
34586;BME280;20816;50.950;11.108;2023-02-10T06:27:25;100339.00;;;0.34;100.00
34586;BME280;20816;50.950;11.108;2023-02-10T06:29:53;100343.50;;;0.38;100.00
34586;BME280;20816;50.950;11.108;2023-02-10T06:32:20;100342.53;;;0.36;100.00
34586;BME280;20816;50.950;11.108;2023-02-10T06:34:46;100348.66;;;0.38;100.00
34586;BME280;20816;50.950;11.108;2023-02-10T06:37:13;100343.66;;;0.41;100.00
34586;BME280;20816;50.950;11.108;2023-02-10T06:39:43;100346.38;;;0.44;100.00
34586;BME280;20816;50.950;11.108;2023-02-10T06:42:10;100352.19;;;0.40;100.00
34586;BME280;20816;50.950;11.108;2023-02-10T06:44:36;100354.25;;;0.47;100.00
34586;BME280;20816;50.950;11.108;2023-02-10T06:47:03;100344.97;;;0.50;100.00
34586;BME280;20816;50.950;11.108;2023-02-10T06:49:29;100342.50;;;0.53;100.00
34586;BME280;20816;50.950;11.108;2023-02-10T06:51:56;100330.31;;;0.51;100.00
34586;BME280;20816;50.950;11.108;2023-02-10T06:54:23;100339.63;;;0.47;100.00
34586;BME280;20816;50.950;11.108;2023-02-10T06:56:49;100338.75;;;0.47;100.00
34586;BME280;20816;50.950;11.108;2023-02-10T06:59:16;100335.63;;;0.54;100.00
34586;BME280;20816;50.950;11.108;2023-02-10T07:01:43;100336.56;;;0.56;100.00
34586;BME280;20816;50.950;11.108;2023-02-10T07:04:10;100335.63;;;0.54;100.00
34586;BME280;20816;50.950;11.108;2023-02-10T07:06:36;100333.84;;;0.53;100.00
34586;BME280;20816;50.950;11.108;2023-02-10T07:09:03;100333.31;;;0.60;100.00
34586;BME280;20816;50.950;11.108;2023-02-10T07:11:31;100343.38;;;0.54;100.00
34586;BME280;20816;50.950;11.108;2023-02-10T07:14:00;100344.50;;;0.59;100.00
34586;BME280;20816;50.950;11.108;2023-02-10T07:16:27;100338.16;;;0.52;100.00
34586;BME280;20816;50.950;11.108;2023-02-10T07:18:56;100343.66;;;0.41;100.00
34586;BME280;20816;50.950;11.108;2023-02-10T07:21:22;100340.66;;;0.51;100.00
34586;BME280;20816;50.950;11.108;2023-02-10T07:23:49;100335.09;;;0.61;100.00
34586;BME280;20816;50.950;11.108;2023-02-10T07:26:15;100333.19;;;0.57;100.00
34586;BME280;20816;50.950;11.108;2023-02-10T07:28:44;100342.09;;;0.64;100.00
34586;BME280;20816;50.950;11.108;2023-02-10T07:31:11;100364.66;;;0.66;100.00
34586;BME280;20816;50.950;11.108;2023-02-10T07:33:39;100363.31;;;0.74;100.00
34586;BME280;20816;50.950;11.108;2023-02-10T07:36:07;100374.78;;;0.62;100.00
34586;BME280;20816;50.950;11.108;2023-02-10T07:38:34;100379.06;;;0.61;100.00
34586;BME280;20816;50.950;11.108;2023-02-10T07:41:02;100384.25;;;0.61;100.00
34586;BME280;20816;50.950;11.108;2023-02-10T07:43:32;100388.38;;;0.75;100.00
34586;BME280;20816;50.950;11.108;2023-02-10T07:45:59;100397.84;;;0.75;100.00
34586;BME280;20816;50.950;11.108;2023-02-10T07:48:25;100393.69;;;0.78;100.00
34586;BME280;20816;50.950;11.108;2023-02-10T07:50:52;100393.97;;;1.04;100.00
34586;BME280;20816;50.950;11.108;2023-02-10T07:53:22;100397.53;;;1.06;100.00
34586;BME280;20816;50.950;11.108;2023-02-10T07:55:48;100396.84;;;1.10;100.00
34586;BME280;20816;50.950;11.108;2023-02-10T07:58:18;100399.44;;;1.10;100.00
34586;BME280;20816;50.950;11.108;2023-02-10T08:00:44;100396.03;;;1.30;100.00
34586;BME280;20816;50.950;11.108;2023-02-10T08:03:14;100398.31;;;1.44;100.00
34586;BME280;20816;50.950;11.108;2023-02-10T08:05:41;100401.88;;;1.46;100.00
34586;BME280;20816;50.950;11.108;2023-02-10T08:08:11;100390.41;;;1.60;100.00
34586;BME280;20816;50.950;11.108;2023-02-10T08:10:40;100394.34;;;1.71;100.00
34586;BME280;20816;50.950;11.108;2023-02-10T08:13:06;100393.84;;;1.80;100.00
34586;BME280;20816;50.950;11.108;2023-02-10T08:15:33;100390.03;;;1.92;100.00
34586;BME280;20816;50.950;11.108;2023-02-10T08:18:00;100385.50;;;2.08;100.00
34586;BME280;20816;50.950;11.108;2023-02-10T08:20:27;100392.13;;;2.22;99.11
34586;BME280;20816;50.950;11.108;2023-02-10T08:22:54;100390.59;;;2.27;98.32
34586;BME280;20816;50.950;11.108;2023-02-10T08:25:25;100390.47;;;2.45;97.73
34586;BME280;20816;50.950;11.108;2023-02-10T08:27:55;100389.63;;;2.46;96.73
34586;BME280;20816;50.950;11.108;2023-02-10T08:30:21;100397.88;;;2.80;95.62
34586;BME280;20816;50.950;11.108;2023-02-10T08:32:48;100391.91;;;2.83;93.84
34586;BME280;20816;50.950;11.108;2023-02-10T08:35:15;100397.94;;;3.04;93.73
34586;BME280;20816;50.950;11.108;2023-02-10T08:37:42;100407.97;;;3.18;91.81
34586;BME280;20816;50.950;11.108;2023-02-10T08:40:11;100407.78;;;3.37;90.70
34586;BME280;20816;50.950;11.108;2023-02-10T08:42:37;100409.88;;;3.47;90.32
34586;BME280;20816;50.950;11.108;2023-02-10T08:45:04;100419.38;;;3.71;89.43
34586;BME280;20816;50.950;11.108;2023-02-10T08:47:32;100416.72;;;3.69;89.55
34586;BME280;20816;50.950;11.108;2023-02-10T08:49:59;100420.31;;;3.98;88.93
34586;BME280;20816;50.950;11.108;2023-02-10T08:52:26;100417.84;;;4.01;88.17
34586;BME280;20816;50.950;11.108;2023-02-10T08:54:53;100421.09;;;3.96;87.78
34586;BME280;20816;50.950;11.108;2023-02-10T08:57:19;100423.03;;;3.76;88.01
34586;BME280;20816;50.950;11.108;2023-02-10T08:59:46;100414.41;;;3.53;89.18
34586;BME280;20816;50.950;11.108;2023-02-10T09:02:12;100423.81;;;3.49;89.95
34586;BME280;20816;50.950;11.108;2023-02-10T09:04:40;100417.63;;;3.22;91.58
34586;BME280;20816;50.950;11.108;2023-02-10T09:07:07;100430.13;;;3.32;91.54
34586;BME280;20816;50.950;11.108;2023-02-10T09:09:37;100426.69;;;3.33;90.85
34586;BME280;20816;50.950;11.108;2023-02-10T09:12:05;100416.41;;;3.36;91.25
34586;BME280;20816;50.950;11.108;2023-02-10T09:14:31;100418.31;;;3.42;91.11
34586;BME280;20816;50.950;11.108;2023-02-10T09:16:58;100422.13;;;3.26;92.16
34586;BME280;20816;50.950;11.108;2023-02-10T09:19:24;100426.84;;;3.14;92.55
34586;BME280;20816;50.950;11.108;2023-02-10T09:21:51;100424.34;;;3.17;93.07
34586;BME280;20816;50.950;11.108;2023-02-10T09:24:17;100427.78;;;3.16;92.95
34586;BME280;20816;50.950;11.108;2023-02-10T09:26:44;100429.91;;;3.26;92.74
34586;BME280;20816;50.950;11.108;2023-02-10T09:29:11;100424.50;;;2.97;93.88
34586;BME280;20816;50.950;11.108;2023-02-10T09:31:38;100426.75;;;2.88;94.16
34586;BME280;20816;50.950;11.108;2023-02-10T09:34:05;100425.66;;;3.05;93.94
34586;BME280;20816;50.950;11.108;2023-02-10T09:36:31;100426.47;;;3.27;93.43
34586;BME280;20816;50.950;11.108;2023-02-10T09:38:58;100429.47;;;3.37;92.75
34586;BME280;20816;50.950;11.108;2023-02-10T09:41:40;100429.78;;;3.47;92.16
34586;BME280;20816;50.950;11.108;2023-02-10T09:44:17;100435.06;;;3.74;91.23
34586;BME280;20816;50.950;11.108;2023-02-10T09:47:40;100433.13;;;3.67;91.02
34586;BME280;20816;50.950;11.108;2023-02-10T09:50:10;100432.88;;;3.84;90.59
34586;BME280;20816;50.950;11.108;2023-02-10T09:55:23;100439.84;;;3.61;91.52
34586;BME280;20816;50.950;11.108;2023-02-10T09:57:57;100443.28;;;3.60;91.86
34586;BME280;20816;50.950;11.108;2023-02-10T10:00:40;100443.16;;;3.33;92.87
34586;BME280;20816;50.950;11.108;2023-02-10T10:03:13;100446.66;;;3.34;92.38
34586;BME280;20816;50.950;11.108;2023-02-10T10:14:14;100451.03;;;3.83;92.00
34586;BME280;20816;50.950;11.108;2023-02-10T10:19:55;100444.88;;;4.06;90.58
34586;BME280;20816;50.950;11.108;2023-02-10T10:22:52;100440.41;;;4.28;90.55
34586;BME280;20816;50.950;11.108;2023-02-10T10:28:47;100437.94;;;4.59;88.09
34586;BME280;20816;50.950;11.108;2023-02-10T10:31:13;100437.19;;;4.63;87.89
34586;BME280;20816;50.950;11.108;2023-02-10T10:34:08;100442.88;;;4.50;88.41
34586;BME280;20816;50.950;11.108;2023-02-10T10:36:41;100435.25;;;4.56;87.93
34586;BME280;20816;50.950;11.108;2023-02-10T10:39:28;100436.84;;;4.79;87.31
34586;BME280;20816;50.950;11.108;2023-02-10T10:41:55;100438.53;;;4.77;87.40
34586;BME280;20816;50.950;11.108;2023-02-10T10:44:26;100433.00;;;5.25;86.79
34586;BME280;20816;50.950;11.108;2023-02-10T10:47:12;100426.97;;;5.58;84.55
34586;BME280;20816;50.950;11.108;2023-02-10T10:49:40;100421.28;;;5.71;84.13
34586;BME280;20816;50.950;11.108;2023-02-10T10:52:34;100421.09;;;5.97;83.82
34586;BME280;20816;50.950;11.108;2023-02-10T10:55:14;100423.09;;;6.07;82.34
34586;BME280;20816;50.950;11.108;2023-02-10T10:57:42;100419.38;;;6.32;81.63
34586;BME280;20816;50.950;11.108;2023-02-10T11:00:25;100410.78;;;6.36;82.08
34586;BME280;20816;50.950;11.108;2023-02-10T11:03:00;100417.38;;;5.88;84.00
34586;BME280;20816;50.950;11.108;2023-02-10T11:05:33;100410.31;;;5.53;84.96
34586;BME280;20816;50.950;11.108;2023-02-10T11:08:03;100406.78;;;5.82;83.98
34586;BME280;20816;50.950;11.108;2023-02-10T11:10:51;100411.16;;;5.83;84.41
34586;BME280;20816;50.950;11.108;2023-02-10T11:13:22;100410.06;;;5.44;84.57
34586;BME280;20816;50.950;11.108;2023-02-10T11:16:08;100418.16;;;4.93;86.76
34586;BME280;20816;50.950;11.108;2023-02-10T11:18:37;100398.19;;;5.23;86.12
34586;BME280;20816;50.950;11.108;2023-02-10T11:21:10;100409.41;;;5.51;85.67
34586;BME280;20816;50.950;11.108;2023-02-10T11:23:52;100396.16;;;5.76;84.44
34586;BME280;20816;50.950;11.108;2023-02-10T11:26:24;100398.44;;;5.62;83.97
34586;BME280;20816;50.950;11.108;2023-02-10T11:28:52;100392.88;;;5.83;83.85
34586;BME280;20816;50.950;11.108;2023-02-10T11:31:31;100390.47;;;6.24;82.55
34586;BME280;20816;50.950;11.108;2023-02-10T11:34:03;100389.28;;;6.47;81.51
34586;BME280;20816;50.950;11.108;2023-02-10T11:36:37;100378.25;;;6.23;82.12
34586;BME280;20816;50.950;11.108;2023-02-10T11:39:06;100380.84;;;6.59;80.17
34586;BME280;20816;50.950;11.108;2023-02-10T11:41:34;100375.25;;;6.82;79.16
34586;BME280;20816;50.950;11.108;2023-02-10T11:44:03;100372.66;;;6.83;78.71
34586;BME280;20816;50.950;11.108;2023-02-10T11:46:54;100375.56;;;6.97;78.54
34586;BME280;20816;50.950;11.108;2023-02-10T11:49:26;100371.75;;;7.22;77.84
34586;BME280;20816;50.950;11.108;2023-02-10T11:52:00;100375.84;;;7.09;77.74
34586;BME280;20816;50.950;11.108;2023-02-10T11:54:28;100367.25;;;6.75;77.74
34586;BME280;20816;50.950;11.108;2023-02-10T12:00:10;100371.31;;;7.00;75.60
34586;BME280;20816;50.950;11.108;2023-02-10T12:02:50;100368.78;;;6.66;77.58
34586;BME280;20816;50.950;11.108;2023-02-10T12:10:39;100365.56;;;6.38;78.84
34586;BME280;20816;50.950;11.108;2023-02-10T12:24:09;100363.56;;;6.66;78.15
34586;BME280;20816;50.950;11.108;2023-02-10T12:26:49;100370.44;;;6.61;78.12
34586;BME280;20816;50.950;11.108;2023-02-10T12:29:24;100372.34;;;6.68;77.05
34586;BME280;20816;50.950;11.108;2023-02-10T12:40:24;100352.19;;;6.62;76.46
34586;BME280;20816;50.950;11.108;2023-02-10T12:52:05;100340.75;;;6.59;77.42
34586;BME280;20816;50.950;11.108;2023-02-10T12:57:14;100344.25;;;6.59;76.70
34586;BME280;20816;50.950;11.108;2023-02-10T13:00:12;100343.34;;;6.57;75.10
34586;BME280;20816;50.950;11.108;2023-02-10T13:06:32;100321.47;;;6.14;76.42
34586;BME280;20816;50.950;11.108;2023-02-10T13:09:05;100326.19;;;6.29;76.62
34586;BME280;20816;50.950;11.108;2023-02-10T13:11:50;100325.84;;;6.52;75.75
34586;BME280;20816;50.950;11.108;2023-02-10T13:14:26;100327.19;;;6.75;74.43
34586;BME280;20816;50.950;11.108;2023-02-10T13:16:55;100323.63;;;6.70;74.73
34586;BME280;20816;50.950;11.108;2023-02-10T13:25:11;100332.66;;;6.46;74.56
34586;BME280;20816;50.950;11.108;2023-02-10T13:28:14;100323.63;;;6.32;75.63
34586;BME280;20816;50.950;11.108;2023-02-10T13:36:18;100328.34;;;6.49;75.25
34586;BME280;20816;50.950;11.108;2023-02-10T13:38:47;100321.53;;;6.55;74.59
34586;BME280;20816;50.950;11.108;2023-02-10T13:41:24;100325.84;;;6.52;74.83
34586;BME280;20816;50.950;11.108;2023-02-10T13:44:29;100318.75;;;6.47;75.53
34586;BME280;20816;50.950;11.108;2023-02-10T13:50:01;100310.97;;;6.11;77.28
34586;BME280;20816;50.950;11.108;2023-02-10T13:52:31;100315.78;;;6.31;76.90
34586;BME280;20816;50.950;11.108;2023-02-10T13:55:27;100322.41;;;6.18;76.91
34586;BME280;20816;50.950;11.108;2023-02-10T14:00:43;100322.72;;;6.30;76.03
34586;BME280;20816;50.950;11.108;2023-02-10T14:11:01;100308.25;;;6.07;77.76
34586;BME280;20816;50.950;11.108;2023-02-10T14:13:33;100306.47;;;6.06;77.10
34586;BME280;20816;50.950;11.108;2023-02-10T14:18:59;100301.53;;;6.18;76.85
34586;BME280;20816;50.950;11.108;2023-02-10T14:21:38;100298.63;;;6.04;77.21
34586;BME280;20816;50.950;11.108;2023-02-10T14:24:12;100303.44;;;5.89;77.22
34586;BME280;20816;50.950;11.108;2023-02-10T14:26:52;100300.91;;;5.92;76.75
34586;BME280;20816;50.950;11.108;2023-02-10T14:29:22;100304.38;;;5.91;78.08
34586;BME280;20816;50.950;11.108;2023-02-10T14:31:52;100298.19;;;5.87;76.78
34586;BME280;20816;50.950;11.108;2023-02-10T14:34:33;100291.84;;;5.78;76.89
34586;BME280;20816;50.950;11.108;2023-02-10T14:37:02;100281.50;;;5.81;77.18
34586;BME280;20816;50.950;11.108;2023-02-10T14:39:30;100284.66;;;5.69;77.68
34586;BME280;20816;50.950;11.108;2023-02-10T14:41:58;100279.91;;;5.53;78.22
34586;BME280;20816;50.950;11.108;2023-02-10T14:44:26;100289.59;;;5.57;78.03
34586;BME280;20816;50.950;11.108;2023-02-10T14:46:56;100274.84;;;5.59;78.15
34586;BME280;20816;50.950;11.108;2023-02-10T14:49:22;100275.88;;;5.64;78.21
34586;BME280;20816;50.950;11.108;2023-02-10T14:51:49;100268.94;;;5.66;78.13
34586;BME280;20816;50.950;11.108;2023-02-10T14:56:58;100274.84;;;5.24;79.13
34586;BME280;20816;50.950;11.108;2023-02-10T14:59:30;100268.47;;;5.13;78.83
34586;BME280;20816;50.950;11.108;2023-02-10T15:01:59;100274.44;;;5.11;79.32